createdAt,value
2019-05-20T00:01:50.677Z,10.50
2019-05-20T00:04:21.996Z,11.43
2019-05-20T00:06:53.101Z,9.73
2019-05-20T00:09:24.633Z,9.57
2019-05-20T00:11:55.881Z,8.60
2019-05-20T00:14:27.152Z,9.07
2019-05-20T00:16:58.245Z,10.17
2019-05-20T00:19:29.384Z,8.08
2019-05-20T00:22:00.634Z,8.37
2019-05-20T00:24:31.861Z,9.13
2019-05-20T00:27:03.844Z,8.27
2019-05-20T00:29:34.802Z,8.37
2019-05-20T00:32:06.229Z,11.20
2019-05-20T00:34:37.213Z,8.70
2019-05-20T00:37:08.289Z,13.03
2019-05-20T00:39:39.497Z,10.00
2019-05-20T00:42:10.537Z,10.37
2019-05-20T00:44:42.163Z,9.30
2019-05-20T00:47:13.876Z,10.13
2019-05-20T00:49:45.159Z,11.23
2019-05-20T00:52:16.617Z,9.10
2019-05-20T00:54:47.603Z,8.30
2019-05-20T00:57:18.599Z,8.23
2019-05-20T00:59:50.110Z,8.40
2019-05-20T01:02:21.087Z,9.10
2019-05-20T01:04:52.422Z,8.58
2019-05-20T01:07:23.441Z,9.40
2019-05-20T01:09:54.737Z,8.80
2019-05-20T01:12:25.711Z,11.35
2019-05-20T01:14:56.730Z,10.13
2019-05-20T01:17:27.695Z,9.90
2019-05-20T01:19:59.145Z,10.32
2019-05-20T01:22:30.140Z,10.53
2019-05-20T01:25:01.479Z,10.90
2019-05-20T01:27:32.479Z,9.78
2019-05-20T01:30:03.597Z,11.73
2019-05-20T01:32:37.240Z,11.50
2019-05-20T01:35:08.988Z,11.20
2019-05-20T01:37:39.998Z,9.07
2019-05-20T01:40:12.618Z,10.53
2019-05-20T01:42:43.634Z,9.53
2019-05-20T01:45:15.085Z,9.47
2019-05-20T01:47:47.482Z,11.53
2019-05-20T01:50:18.584Z,11.80
2019-05-20T01:52:50.154Z,10.07
2019-05-20T01:55:21.376Z,10.38
2019-05-20T01:57:52.487Z,17.13
2019-05-20T02:00:23.582Z,10.05
2019-05-20T02:02:54.644Z,10.63
2019-05-20T02:05:25.627Z,9.63
2019-05-20T02:07:57.670Z,9.98
2019-05-20T02:10:29.003Z,9.13
2019-05-20T02:12:59.987Z,9.83
2019-05-20T02:15:37.472Z,15.55
2019-05-20T02:18:08.720Z,9.93
2019-05-20T02:20:39.710Z,9.83
2019-05-20T02:23:14.819Z,11.37
2019-05-20T02:25:47.106Z,13.60
2019-05-20T02:28:18.335Z,10.63
2019-05-20T02:30:49.567Z,12.37
2019-05-20T02:35:54.771Z,14.17
2019-05-20T02:38:26.817Z,11.70
2019-05-20T02:40:58.466Z,14.70
2019-05-20T02:43:29.978Z,12.15
2019-05-20T02:46:02.184Z,12.63
2019-05-20T02:48:34.279Z,13.03
2019-05-20T02:51:06.166Z,14.30
2019-05-20T02:53:37.998Z,12.77
2019-05-20T02:56:10.008Z,14.80
2019-05-20T02:58:42.984Z,12.60
2019-05-20T03:01:14.673Z,12.93
2019-05-20T03:03:46.887Z,14.63
2019-05-20T03:06:19.682Z,14.28
2019-05-20T03:08:51.634Z,18.40
2019-05-20T03:11:23.241Z,16.77
2019-05-20T03:13:54.877Z,12.97
2019-05-20T03:16:27.033Z,14.55
2019-05-20T03:18:58.855Z,13.63
2019-05-20T03:21:31.141Z,16.03
2019-05-20T03:24:03.000Z,16.70
2019-05-20T03:26:35.096Z,16.00
2019-05-20T03:29:07.016Z,18.83
2019-05-20T03:31:38.949Z,21.47
2019-05-20T03:34:38.725Z,18.87
2019-05-20T03:36:44.781Z,20.13
2019-05-20T03:39:16.776Z,18.33
2019-05-20T03:41:50.197Z,18.15
2019-05-20T03:44:22.182Z,19.27
2019-05-20T03:46:54.143Z,19.37
2019-05-20T03:49:26.520Z,18.77
2019-05-20T03:51:58.325Z,20.70
2019-05-20T03:54:30.324Z,17.95
2019-05-20T03:57:02.125Z,19.23
2019-05-20T03:59:33.803Z,21.20
2019-05-20T04:02:05.537Z,20.47
2019-05-20T04:04:37.566Z,22.20
2019-05-20T04:07:11.311Z,21.23
2019-05-20T04:09:43.186Z,18.70
2019-05-20T04:12:15.089Z,19.87
2019-05-20T04:14:47.278Z,20.20
2019-05-20T04:17:19.465Z,23.17
2019-05-20T04:19:51.376Z,19.57
2019-05-20T04:22:23.344Z,18.67
2019-05-20T04:24:55.330Z,19.13
2019-05-20T04:27:27.310Z,26.02
2019-05-20T04:29:59.463Z,20.00
2019-05-20T04:32:31.425Z,20.30
2019-05-20T04:35:20.552Z,23.77
2019-05-20T04:37:36.786Z,19.40
2019-05-20T04:40:08.982Z,21.23
2019-05-20T04:42:40.780Z,18.77
2019-05-20T04:45:13.380Z,20.77
2019-05-20T04:47:45.185Z,26.00
2019-05-20T04:50:16.765Z,19.50
2019-05-20T04:52:48.507Z,23.57
2019-05-20T04:55:20.892Z,20.77
2019-05-20T04:57:52.983Z,21.60
2019-05-20T05:00:51.473Z,23.50
2019-05-20T05:03:23.861Z,28.03
2019-05-20T05:05:55.872Z,21.43
2019-05-20T05:08:27.221Z,22.80
2019-05-20T05:10:58.860Z,24.90
2019-05-20T05:13:32.075Z,22.20
2019-05-20T05:16:03.704Z,21.63
2019-05-20T05:18:35.643Z,19.37
2019-05-20T05:21:07.363Z,21.33
2019-05-20T05:23:38.829Z,24.70
2019-05-20T05:26:11.060Z,22.50
2019-05-20T05:28:42.717Z,22.00
2019-05-20T05:31:14.584Z,25.87
2019-05-20T05:33:46.474Z,22.07
2019-05-20T05:36:18.433Z,24.13
2019-05-20T05:38:50.883Z,21.77
2019-05-20T05:41:22.535Z,21.57
2019-05-20T05:43:54.729Z,20.97
2019-05-20T05:46:26.854Z,20.20
2019-05-20T05:48:59.214Z,25.30
2019-05-20T05:51:31.414Z,22.00
2019-05-20T05:54:02.708Z,21.27
2019-05-20T05:56:34.653Z,24.03
2019-05-20T05:59:06.187Z,21.67
2019-05-20T06:01:37.835Z,25.17
2019-05-20T06:04:09.675Z,21.60
2019-05-20T06:06:40.918Z,22.30
2019-05-20T06:09:12.857Z,22.70
2019-05-20T06:11:44.843Z,25.83
2019-05-20T06:14:16.719Z,21.63
2019-05-20T06:16:48.299Z,25.80
2019-05-20T06:19:20.064Z,20.60
2019-05-20T06:21:52.600Z,28.43
2019-05-20T06:24:23.951Z,20.93
2019-05-20T06:26:55.449Z,22.60
2019-05-20T06:29:27.503Z,21.80
2019-05-20T06:31:59.360Z,22.57
2019-05-20T06:34:30.985Z,22.13
2019-05-20T06:37:05.299Z,20.07
2019-05-20T06:39:36.950Z,19.67
2019-05-20T06:42:08.936Z,22.93
2019-05-20T06:44:52.188Z,23.77
2019-05-20T06:47:14.272Z,25.87
2019-05-20T06:49:46.162Z,21.97
2019-05-20T06:52:33.241Z,20.17
2019-05-20T06:54:51.093Z,21.90
2019-05-20T06:57:24.040Z,23.07
2019-05-20T06:59:56.522Z,20.03
2019-05-20T07:02:28.716Z,20.65
2019-05-20T07:05:00.040Z,21.60
2019-05-20T07:07:31.830Z,20.83
2019-05-20T07:10:03.429Z,25.83
2019-05-20T07:12:41.115Z,19.07
2019-05-20T07:15:09.641Z,21.93
2019-05-20T07:17:42.622Z,18.77
2019-05-20T07:20:15.925Z,22.00
2019-05-20T07:22:55.686Z,21.60
2019-05-20T07:25:21.599Z,19.87
2019-05-20T07:27:53.801Z,24.10
2019-05-20T07:30:25.395Z,22.83
2019-05-20T07:32:57.146Z,20.93
2019-05-20T07:35:31.009Z,18.27
2019-05-20T07:38:02.367Z,20.00
2019-05-20T07:40:33.924Z,18.27
2019-05-20T07:43:05.691Z,22.70
2019-05-20T07:45:37.800Z,22.50
2019-05-20T07:48:09.712Z,28.60
2019-05-20T07:50:40.846Z,18.07
2019-05-20T07:53:12.947Z,19.73
2019-05-20T07:55:57.082Z,23.57
2019-05-20T07:58:33.484Z,22.67
2019-05-20T08:01:03.300Z,23.93
2019-05-20T08:03:38.429Z,19.83
2019-05-20T08:06:08.649Z,19.17
2019-05-20T08:08:39.907Z,23.93
2019-05-20T08:11:11.490Z,21.93
2019-05-20T08:13:43.586Z,24.20
2019-05-20T08:16:14.727Z,22.37
2019-05-20T08:18:46.416Z,22.40
2019-05-20T08:21:18.121Z,19.23
2019-05-20T08:23:50.378Z,20.93
2019-05-20T08:26:22.377Z,19.20
2019-05-20T08:28:54.985Z,18.60
2019-05-20T08:31:27.084Z,17.10
2019-05-20T08:33:58.290Z,18.20
2019-05-20T08:36:30.252Z,22.57
2019-05-20T08:39:01.877Z,23.92
2019-05-20T08:41:35.277Z,23.65
2019-05-20T08:44:07.871Z,18.10
2019-05-20T08:46:39.157Z,21.12
2019-05-20T08:49:11.800Z,21.90
2019-05-20T08:51:43.689Z,19.77
2019-05-20T08:54:15.676Z,22.53
2019-05-20T08:56:49.260Z,18.23
2019-05-20T08:59:20.607Z,18.83
2019-05-20T09:01:52.430Z,19.73
2019-05-20T09:04:24.291Z,18.70
2019-05-20T09:06:56.091Z,16.07
2019-05-20T09:09:27.923Z,19.73
2019-05-20T09:12:01.611Z,18.40
2019-05-20T09:14:34.035Z,18.57
2019-05-20T09:17:06.267Z,19.67
2019-05-20T09:19:37.904Z,18.87
2019-05-20T09:22:11.014Z,17.07
2019-05-20T09:24:43.120Z,19.53
2019-05-20T09:27:14.555Z,16.90
2019-05-20T09:29:46.414Z,17.57
2019-05-20T09:32:18.275Z,16.73
2019-05-20T09:34:50.035Z,19.43
2019-05-20T09:37:21.475Z,17.73
2019-05-20T09:39:53.029Z,20.73
2019-05-20T09:42:26.262Z,19.60
2019-05-20T09:45:02.956Z,17.17
2019-05-20T09:47:31.598Z,19.60
2019-05-20T09:50:03.676Z,16.63
2019-05-20T09:52:35.776Z,17.35
2019-05-20T09:55:07.226Z,16.83
2019-05-20T09:57:38.809Z,17.95
2019-05-20T10:00:11.320Z,17.35
2019-05-20T10:02:43.212Z,15.68
2019-05-20T10:05:14.818Z,15.10
2019-05-20T10:07:46.416Z,17.17
2019-05-20T10:10:18.223Z,17.53
2019-05-20T10:12:50.024Z,16.90
2019-05-20T10:15:21.379Z,19.13
2019-05-20T10:17:53.306Z,16.70
2019-05-20T10:20:24.947Z,14.87
2019-05-20T10:22:56.252Z,17.07
2019-05-20T10:25:27.813Z,19.40
2019-05-20T10:28:00.183Z,15.07
2019-05-20T10:30:31.440Z,14.95
2019-05-20T10:33:03.300Z,14.53
2019-05-20T10:35:35.032Z,15.20
2019-05-20T10:38:06.738Z,13.83
2019-05-20T10:40:38.812Z,14.33
2019-05-20T10:43:10.410Z,16.30
2019-05-20T10:45:42.224Z,18.37
2019-05-20T10:48:14.208Z,14.47
2019-05-20T10:50:46.505Z,14.87
2019-05-20T10:53:17.753Z,12.47
2019-05-20T10:55:50.057Z,15.97
2019-05-20T10:58:22.186Z,13.40
2019-05-20T11:01:02.215Z,14.87
2019-05-20T11:03:27.489Z,13.13
2019-05-20T11:05:59.397Z,12.23
2019-05-20T11:08:31.620Z,17.17
2019-05-20T11:11:02.929Z,15.37
2019-05-20T11:13:34.304Z,9.27
2019-05-20T11:16:05.729Z,9.53
2019-05-20T11:18:37.581Z,11.50
2019-05-20T11:21:09.752Z,11.27
2019-05-20T11:23:41.920Z,11.57
2019-05-20T11:26:13.249Z,9.00
2019-05-20T11:28:45.179Z,7.93
2019-05-20T11:31:17.273Z,10.15
2019-05-20T11:33:49.132Z,9.50
2019-05-20T11:36:21.298Z,11.10
2019-05-20T11:38:53.576Z,10.13
2019-05-20T11:41:51.169Z,7.90
2019-05-20T11:43:58.833Z,7.30
2019-05-20T11:46:31.097Z,7.30
2019-05-20T11:49:02.135Z,9.08
2019-05-20T11:51:34.055Z,7.08
2019-05-20T11:54:06.061Z,7.15
2019-05-20T11:56:37.703Z,6.57
2019-05-20T11:59:09.389Z,8.08
2019-05-20T12:01:41.347Z,6.90
2019-05-20T12:04:13.467Z,7.13
2019-05-20T12:06:45.258Z,6.47
2019-05-20T12:09:17.030Z,7.97
2019-05-20T12:11:48.747Z,6.50
2019-05-20T12:14:20.323Z,6.30
2019-05-20T12:16:52.844Z,6.72
2019-05-20T12:19:24.631Z,6.10
2019-05-20T12:21:56.454Z,6.33
2019-05-20T12:24:29.011Z,6.98
2019-05-20T12:27:01.052Z,8.83
2019-05-20T12:29:33.140Z,5.50
2019-05-20T12:32:06.130Z,7.53
2019-05-20T12:34:37.976Z,7.20
2019-05-20T12:37:09.334Z,8.30
2019-05-20T12:39:41.507Z,6.30
2019-05-20T12:42:13.679Z,6.23
2019-05-20T12:44:45.310Z,5.67
2019-05-20T12:47:16.897Z,6.23
2019-05-20T12:49:48.708Z,6.35
2019-05-20T12:52:20.567Z,5.97
2019-05-20T12:55:06.665Z,6.43
2019-05-20T12:57:25.511Z,9.35
2019-05-20T12:59:57.216Z,11.22
2019-05-20T13:02:30.012Z,6.00
2019-05-20T13:05:02.238Z,6.40
2019-05-20T13:07:33.801Z,7.40
2019-05-20T13:10:26.003Z,9.60
2019-05-20T13:12:39.797Z,7.33
2019-05-20T13:15:12.882Z,11.50
2019-05-20T13:17:45.467Z,9.53
2019-05-20T13:20:17.727Z,10.83
2019-05-20T13:22:49.547Z,9.83
2019-05-20T13:25:21.627Z,9.60
2019-05-20T13:27:53.264Z,8.20
2019-05-20T13:30:25.571Z,11.67
2019-05-20T13:32:57.083Z,11.37
2019-05-20T13:35:28.629Z,9.20
2019-05-20T13:38:00.370Z,12.43
2019-05-20T13:40:45.673Z,15.60
2019-05-20T13:43:05.520Z,9.77
2019-05-20T13:45:37.130Z,10.60
2019-05-20T13:48:09.065Z,9.33
2019-05-20T13:50:41.024Z,9.43
2019-05-20T13:53:13.181Z,9.60
2019-05-20T13:55:44.946Z,13.55
2019-05-20T13:58:17.221Z,10.83
2019-05-20T14:00:48.867Z,12.53
2019-05-20T14:03:20.844Z,8.87
2019-05-20T14:05:54.024Z,9.37
2019-05-20T14:08:25.545Z,12.43
2019-05-20T14:11:04.158Z,10.47
2019-05-20T14:13:31.805Z,13.73
2019-05-20T14:16:03.413Z,12.23
2019-05-20T14:18:35.475Z,12.57
2019-05-20T14:21:07.853Z,11.53
2019-05-20T14:23:39.534Z,20.37
2019-05-20T14:26:12.034Z,15.53
2019-05-20T14:28:43.647Z,11.67
2019-05-20T14:31:19.595Z,14.60
2019-05-20T14:33:51.856Z,15.03
2019-05-20T14:36:38.594Z,10.43
2019-05-20T14:38:56.501Z,9.77
2019-05-20T14:41:28.153Z,12.47
2019-05-20T14:43:59.910Z,8.73
2019-05-20T14:46:33.014Z,8.53
2019-05-20T14:49:04.576Z,8.87
2019-05-20T14:51:36.675Z,7.55
2019-05-20T14:54:08.581Z,8.20
2019-05-20T14:56:40.470Z,9.08
2019-05-20T14:59:12.390Z,6.17
2019-05-20T15:01:43.978Z,7.67
2019-05-20T15:04:15.840Z,10.93
2019-05-20T15:06:47.647Z,7.73
2019-05-20T15:09:18.698Z,9.65
2019-05-20T15:11:50.774Z,8.47
2019-05-20T15:14:22.105Z,12.33
2019-05-20T15:16:54.140Z,7.20
2019-05-20T15:19:25.325Z,12.43
2019-05-20T15:21:57.004Z,6.93
2019-05-20T15:24:28.736Z,10.07
2019-05-20T15:27:01.519Z,7.28
2019-05-20T15:29:33.570Z,9.60
2019-05-20T15:32:06.421Z,7.97
2019-05-20T15:34:38.246Z,7.03
2019-05-20T15:37:11.411Z,7.03
2019-05-20T15:39:43.398Z,7.67
2019-05-20T15:42:14.670Z,6.57
2019-05-20T15:44:46.730Z,7.57
2019-05-20T15:47:19.898Z,7.63
2019-05-20T15:49:51.773Z,12.40
2019-05-20T15:52:23.946Z,9.47
2019-05-20T15:54:55.393Z,8.43
2019-05-20T15:57:27.618Z,7.90
2019-05-20T15:59:59.564Z,13.40
2019-05-20T16:02:32.030Z,8.10
2019-05-20T16:05:03.999Z,9.47
2019-05-20T16:07:35.975Z,9.43
2019-05-20T16:10:07.630Z,10.97
2019-05-20T16:12:39.673Z,14.73
2019-05-20T16:15:11.581Z,15.17
2019-05-20T16:17:47.700Z,8.67
2019-05-20T16:20:17.140Z,9.23
2019-05-20T16:22:49.243Z,9.50
2019-05-20T16:25:21.680Z,5.20
2019-05-20T16:27:53.026Z,7.10
2019-05-20T16:30:24.989Z,8.30
2019-05-20T16:32:56.591Z,10.13
2019-05-20T16:35:28.202Z,14.63
2019-05-20T16:38:00.147Z,13.47
2019-05-20T16:40:32.220Z,16.33
2019-05-20T16:43:04.900Z,14.53
2019-05-20T16:45:36.823Z,19.37
2019-05-20T16:48:08.291Z,18.82
2019-05-20T16:50:39.793Z,17.40
2019-05-20T16:53:11.218Z,18.45
2019-05-20T16:55:42.871Z,10.80
2019-05-20T16:58:15.639Z,13.77
2019-05-20T17:00:48.006Z,12.70
2019-05-20T17:03:20.310Z,16.17
2019-05-20T17:05:52.367Z,11.93
2019-05-20T17:08:24.456Z,15.03
2019-05-20T17:10:56.282Z,14.27
2019-05-20T17:13:28.254Z,18.67
2019-05-20T17:16:00.122Z,14.00
2019-05-20T17:18:31.791Z,14.18
2019-05-20T17:21:03.969Z,15.40
2019-05-20T17:23:35.781Z,20.00
2019-05-20T17:26:07.162Z,18.33
2019-05-20T17:28:39.522Z,16.60
2019-05-20T17:31:12.791Z,17.67
2019-05-20T17:33:44.269Z,16.83
2019-05-20T17:36:16.027Z,13.15
2019-05-20T17:38:48.123Z,17.53
2019-05-20T17:41:21.568Z,15.53
2019-05-20T17:43:54.207Z,20.13
2019-05-20T17:46:27.042Z,18.17
2019-05-20T17:48:59.718Z,18.07
2019-05-20T17:51:31.801Z,19.73
2019-05-20T17:54:03.800Z,17.50
2019-05-20T17:56:36.194Z,16.97
2019-05-20T17:59:08.176Z,19.03
2019-05-20T18:01:39.922Z,24.07
2019-05-20T18:04:11.523Z,21.90
2019-05-20T18:06:44.835Z,22.60
2019-05-20T18:09:16.770Z,14.13
2019-05-20T18:11:48.120Z,8.70
2019-05-20T18:14:21.142Z,2.73
2019-05-20T18:16:52.972Z,4.03
2019-05-20T18:19:24.876Z,3.30
2019-05-20T18:21:57.057Z,2.93
2019-05-20T18:24:28.983Z,6.67
2019-05-20T18:27:01.918Z,4.20
2019-05-20T18:29:33.771Z,4.57
2019-05-20T18:32:05.619Z,3.50
2019-05-20T18:34:37.229Z,6.57
2019-05-20T18:37:08.543Z,9.57
2019-05-20T18:39:39.870Z,9.53
2019-05-20T18:42:13.828Z,14.97
2019-05-20T18:44:46.271Z,12.27
2019-05-20T18:47:18.115Z,10.50
2019-05-20T18:49:49.826Z,11.27
2019-05-20T18:52:21.832Z,14.70
2019-05-20T18:54:54.039Z,9.80
2019-05-20T18:57:26.061Z,8.93
2019-05-20T18:59:57.712Z,12.67
2019-05-20T19:02:29.722Z,15.53
2019-05-20T19:05:03.675Z,13.65
2019-05-20T19:07:36.045Z,15.13
2019-05-20T19:10:08.119Z,14.67
2019-05-20T19:12:40.519Z,14.80
2019-05-20T19:15:12.763Z,14.87
2019-05-20T19:17:45.148Z,11.00
2019-05-20T19:20:17.100Z,14.53
2019-05-20T19:22:49.090Z,28.03
2019-05-20T19:25:20.329Z,20.17
2019-05-20T19:27:52.078Z,25.17
2019-05-20T19:30:24.010Z,22.20
2019-05-20T19:32:57.724Z,27.30
2019-05-20T19:35:29.355Z,34.97
2019-05-20T19:38:00.997Z,32.37
2019-05-20T19:40:32.692Z,27.27
2019-05-20T19:43:04.647Z,36.83
2019-05-20T19:45:36.394Z,35.20
2019-05-20T19:48:08.013Z,36.27
2019-05-20T19:50:39.716Z,42.03
2019-05-20T19:53:11.446Z,29.00
2019-05-20T19:55:43.301Z,31.33
2019-05-20T19:58:15.376Z,35.33
2019-05-20T20:00:48.746Z,26.80
2019-05-20T20:03:20.642Z,32.08
2019-05-20T20:05:52.944Z,31.30
2019-05-20T20:08:25.209Z,32.85
2019-05-20T20:10:58.917Z,31.90
2019-05-20T20:13:34.043Z,37.07
2019-05-20T20:16:04.585Z,34.40
2019-05-20T20:18:37.754Z,36.10
2019-05-20T20:21:11.028Z,38.30
2019-05-20T20:23:43.344Z,34.13
2019-05-20T20:26:16.635Z,33.33
2019-05-20T20:28:48.632Z,37.85
2019-05-20T20:31:20.973Z,36.73
2019-05-20T20:33:53.028Z,35.47
2019-05-20T20:36:24.892Z,34.60
2019-05-20T20:38:57.448Z,30.67
2019-05-20T20:41:29.719Z,34.27
2019-05-20T20:44:01.682Z,30.93
2019-05-20T20:46:33.856Z,32.85
2019-05-20T20:49:05.483Z,34.37
2019-05-20T20:51:37.212Z,30.07
2019-05-20T20:54:08.980Z,29.27
2019-05-20T20:56:40.582Z,34.03
2019-05-20T20:59:12.382Z,28.57
2019-05-20T21:01:44.212Z,30.62
2019-05-20T21:04:16.576Z,28.93
2019-05-20T21:06:48.654Z,32.03
2019-05-20T21:09:20.621Z,35.70
2019-05-20T21:11:52.508Z,33.50
2019-05-20T21:14:24.912Z,29.32
2019-05-20T21:16:57.112Z,33.20
2019-05-20T21:19:29.314Z,34.03
2019-05-20T21:22:01.259Z,35.63
2019-05-20T21:24:33.253Z,32.90
2019-05-20T21:27:05.346Z,29.93
2019-05-20T21:29:37.251Z,31.10
2019-05-20T21:32:09.183Z,30.97
2019-05-20T21:34:41.250Z,31.47
2019-05-20T21:37:13.789Z,29.80
2019-05-20T21:39:45.678Z,29.47
2019-05-20T21:42:17.223Z,31.90
2019-05-20T21:44:48.934Z,32.23
2019-05-20T21:47:21.252Z,30.07
2019-05-20T21:49:53.038Z,29.93
2019-05-20T21:52:25.402Z,35.15
2019-05-20T21:54:57.759Z,32.90
2019-05-20T21:57:29.033Z,31.57
2019-05-20T22:00:00.836Z,27.60
2019-05-20T22:02:34.452Z,27.37
2019-05-20T22:05:06.844Z,31.57
2019-05-20T22:07:38.487Z,27.33
2019-05-20T22:10:10.253Z,26.03
2019-05-20T22:12:42.513Z,24.80
2019-05-20T22:15:14.298Z,29.57
2019-05-20T22:17:46.524Z,28.73
2019-05-20T22:20:18.412Z,26.25
2019-05-20T22:23:09.399Z,24.15
2019-05-20T22:25:41.357Z,21.90
2019-05-20T22:28:13.100Z,23.83
2019-05-20T22:30:45.175Z,25.73
2019-05-20T22:33:17.135Z,20.93
2019-05-20T22:35:50.211Z,32.00
2019-05-20T22:38:22.439Z,26.13
2019-05-20T22:40:54.666Z,25.10
2019-05-20T22:43:26.800Z,31.00
2019-05-20T22:45:59.188Z,25.27
2019-05-20T22:48:31.171Z,26.30
2019-05-20T22:51:02.735Z,28.77
2019-05-20T22:53:34.970Z,29.57
2019-05-20T22:56:06.974Z,28.93
2019-05-20T22:58:44.996Z,30.13
2019-05-20T23:01:16.540Z,27.50
2019-05-20T23:03:56.001Z,30.57
2019-05-20T23:06:22.228Z,30.20
2019-05-20T23:08:54.442Z,32.60
2019-05-20T23:11:26.299Z,29.32
2019-05-20T23:13:58.409Z,29.48
2019-05-20T23:16:30.060Z,40.27
2019-05-20T23:19:01.804Z,33.13
2019-05-20T23:21:33.749Z,30.30
2019-05-20T23:24:05.727Z,32.00
2019-05-20T23:26:37.585Z,30.43
2019-05-20T23:29:09.139Z,31.70
2019-05-20T23:31:40.877Z,30.20
2019-05-20T23:34:13.384Z,30.97
2019-05-20T23:36:46.348Z,35.25
2019-05-20T23:39:17.871Z,32.28
2019-05-20T23:41:49.686Z,35.05
2019-05-20T23:44:21.792Z,32.73
2019-05-20T23:46:53.919Z,39.60
2019-05-20T23:49:25.993Z,35.03
2019-05-20T23:51:58.120Z,36.50
2019-05-20T23:54:30.255Z,35.13
2019-05-20T23:57:02.564Z,36.67
2019-05-20T23:59:34.844Z,37.50
